• Join FlightAware (Why Join?)
  • Login
  • US Flag 
10:05AM EST


 

Airport Tracker/Info


-or-


 

Live Flight TrackerFlight Track Log ✈ RSP699 ✈ 15-Mar-2012 ✈ KBLI - KSJC

Flight Track Log - Related Links

Times and Time Zones

All times are in EDT time to prevent confusion due to time zone crossing. See the RSP699 flight status page for this flight to view local times or setup timezone preferences in your user account.

Time Position Orientation Groundspeed Altitude Reporting Facility
EDT Latitude Longitude Course Direction KTS MPH feet Rate Location/Type
01:03AM 48.5994 -122.5876 13° North  Level FlightAware Approximate
01:04AM 48.7500 -122.5333 225° Southwest 130 150 1,900  Level Vancouver Center
01:05AM 48.7167 -122.5833 168° South 160 184 4,200 2,450 Climbing Vancouver Center
01:06AM 48.6667 -122.5667 192° South 170 196 6,800 2,350 Climbing Vancouver Center
01:07AM 48.6167 -122.5833 223° Southwest 190 219 8,900 2,151 Climbing Vancouver Center
01:07AM 48.5869 -122.6247 211° Southwest 216 249 10,600 2,187 Climbing Seattle Center
01:08AM 48.5394 -122.6686 212° Southwest 207 238 12,800 2,066 Climbing Seattle Center
01:09AM 48.4903 -122.7144 211° Southwest 208 239 14,800 1,934 Climbing Seattle Center
01:10AM 48.4353 -122.7644 212° Southwest 217 250 16,700 2,083 Climbing Seattle Center
01:11AM 48.3789 -122.8169 211° Southwest 236 272 19,000 2,066 Climbing Seattle Center
01:12AM 48.3225 -122.8689 213° Southwest 240 276 20,900 1,869 Climbing Seattle Center
01:13AM 48.2553 -122.9342 212° Southwest 241 277 22,800 1,721 Climbing Seattle Center
01:14AM 48.1961 -122.9892 211° Southwest 248 285 24,400 1,587 Climbing Seattle Center
01:15AM 48.1353 -123.0450 196° South 257 296 26,000 1,587 Climbing Seattle Center
01:16AM 48.0717 -123.0731 180° South 255 293 27,600 1,426 Climbing Seattle Center
01:18AM 48.0008 -123.0722 179° South 261 300 28,900 1,230 Climbing Seattle Center
01:19AM 47.9306 -123.0708 179° South 257 296 30,100 1,041 Climbing Seattle Center
01:20AM 47.8578 -123.0694 179° South 262 302 31,000 843 Climbing Seattle Center
01:21AM 47.7806 -123.0667 179° South 278 320 31,800 885 Climbing Seattle Center
01:22AM 47.6842 -123.0644 179° South 292 336 32,800 843 Climbing Seattle Center
01:23AM 47.6014 -123.0625 179° South 300 345 33,500 744 Climbing Seattle Center
01:24AM 47.5192 -123.0600 179° South 300 345 34,300 787 Climbing Seattle Center
01:25AM 47.4364 -123.0586 179° South 301 346 35,100 645 Climbing Seattle Center
01:26AM 47.3550 -123.0567 179° South 299 344 35,600 496 Climbing Seattle Center
01:27AM 47.2719 -123.0544 179° South 301 346 36,100 492 Climbing Seattle Center
01:28AM 47.1878 -123.0528 179° South 305 351 36,600 443 Climbing Seattle Center
01:29AM 47.1042 -123.0514 179° South 305 351 37,000 198 Climbing Seattle Center
01:30AM 47.0017 -123.0492 180° South 311 358 37,000  Level Seattle Center
01:31AM 46.9128 -123.0481 179° South 321 369 37,000  Level Seattle Center
01:32AM 46.8222 -123.0447 179° South 327 376 37,000  Level Seattle Center
01:33AM 46.7331 -123.0433 180° South 327 376 37,000  Level Seattle Center
01:34AM 46.6467 -123.0425 180° South 318 366 37,000  Level Seattle Center
01:35AM 46.5586 -123.0417 179° South 319 367 37,000  Level Seattle Center
01:36AM 46.4733 -123.0400 179° South 313 360 37,000 -198 Level Seattle Center
01:37AM 46.3861 -123.0381 179° South 316 364 36,600 -443 Descending Seattle Center
01:38AM 46.2947 -123.0350 179° South 329 379 36,100 -496 Descending Seattle Center
01:39AM 46.1814 -123.0317 179° South 340 391 35,600 -446 Descending Seattle Center
01:40AM 46.0983 -123.0303 179° South 342 394 35,200 -295 Descending Seattle Center
01:41AM 46.0022 -123.0281 179° South 345 397 35,000 -99 Descending Seattle Center
01:42AM 45.9075 -123.0247 179° South 343 395 35,000  Level Seattle Center
01:43AM 45.8139 -123.0219 180° South 338 389 35,000  Level Seattle Center
01:44AM 45.7197 -123.0208 179° South 338 389 35,000  Level Seattle Center
01:45AM 45.6267 -123.0181 179° South 336 387 35,000  Level Seattle Center
01:46AM 45.5350 -123.0158 179° South 333 383 35,000  Level Seattle Center
01:47AM 45.4258 -123.0131 178° South 329 379 35,000  Level Seattle Center
01:48AM 45.3322 -123.0089 179° South 333 383 35,000  Level Seattle Center
01:49AM 45.2383 -123.0075 179° South 335 386 35,000  Level Seattle Center
01:50AM 45.1461 -123.0050 180° South 333 383 35,000  Level Seattle Center
01:51AM 45.0522 -123.0039 179° South 335 386 35,000  Level Seattle Center
01:52AM 44.9589 -123.0019 179° South 335 386 35,000  Level Seattle Center
01:53AM 44.8669 -122.9997 179° South 331 381 35,000  Level Seattle Center
01:54AM 44.7758 -122.9972 179° South 328 377 35,000  Level Seattle Center
01:55AM 44.6819 -122.9950 179° South 333 383 35,000  Level Seattle Center
01:56AM 44.5897 -122.9922 180° South 332 382 35,000  Level Seattle Center
01:57AM 44.4967 -122.9911 179° South 333 383 35,000  Level Seattle Center
01:58AM 44.4039 -122.9886 179° South 333 383 35,000  Level Seattle Center
01:59AM 44.3064 -122.9867 179° South 333 383 35,000  Level Seattle Center
02:00AM 44.2128 -122.9853 179° South 333 383 35,000  Level Seattle Center
02:01AM 44.1192 -122.9828 179° South 333 383 35,000  Level Seattle Center
02:02AM 44.0272 -122.9803 179° South 331 381 35,000  Level Seattle Center
02:03AM 43.9358 -122.9789 179° South 328 377 35,000  Level Seattle Center
02:04AM 43.8433 -122.9769 179° South 330 380 35,000  Level Seattle Center
02:05AM 43.7506 -122.9744 179° South 332 382 35,000  Level Seattle Center
02:06AM 43.6578 -122.9728 179° South 333 383 35,000  Level Seattle Center
02:07AM 43.5647 -122.9711 180° South 334 384 35,000  Level Seattle Center
02:08AM 43.4717 -122.9700 179° South 334 384 35,000  Level Seattle Center
02:09AM 43.3781 -122.9669 179° South 335 386 35,000  Level Seattle Center
02:10AM 43.2839 -122.9642 179° South 336 387 35,000  Level Seattle Center
02:11AM 43.1900 -122.9611 179° South 337 388 35,000  Level Seattle Center
02:12AM 43.0964 -122.9592 180° South 336 387 35,000  Level Seattle Center
02:13AM 43.0028 -122.9581 179° South 336 387 35,000  Level Seattle Center
02:14AM 42.9094 -122.9564 179° South 335 386 35,000  Level Seattle Center
02:15AM 42.8164 -122.9542 179° South 335 386 35,000  Level Seattle Center
02:16AM 42.7172 -122.9517 179° South 335 386 35,000  Level Seattle Center
02:17AM 42.6231 -122.9494 180° South 338 389 35,000  Level Seattle Center
02:18AM 42.5283 -122.9492 179° South 341 392 35,000  Level Seattle Center
02:19AM 42.4322 -122.9467 179° South 344 396 35,000  Level Seattle Center
02:20AM 42.3372 -122.9450 179° South 343 395 35,000  Level Seattle Center
02:21AM 42.2411 -122.9433 179° South 345 397 35,000  Level Seattle Center
02:22AM 42.1447 -122.9414 179° South 347 399 35,000  Level Seattle Center
02:23AM 42.0472 -122.9386 179° South 349 402 35,000  Level Seattle Center
02:24AM 41.9506 -122.9372 180° South 349 402 35,000  Level Seattle Center
02:25AM 41.8539 -122.9375 179° South 349 402 35,000  Level Seattle Center
02:26AM 41.7575 -122.9356 179° South 348 400 35,000  Level Seattle Center
02:27AM 41.6611 -122.9339 179° South 348 400 35,000  Level Seattle Center
02:28AM 41.5447 -122.9317 180° South 348 400 35,000  Level Seattle Center
02:29AM 41.4478 -122.9306 179° South 349 402 35,000  Level Seattle Center
02:30AM 41.3442 -122.9289 179° South 355 409 35,000  Level Seattle Center
02:31AM 41.2442 -122.9272 179° South 358 412 35,000  Level Seattle Center
02:32AM 41.1442 -122.9258 179° South 358 412 35,000  Level Seattle Center
02:33AM 41.0450 -122.9236 179° South 357 411 35,000  Level Seattle Center
02:34AM 40.9461 -122.9217 179° South 356 410 35,000  Level Seattle Center
02:35AM 40.8428 -122.9194 179° South 357 411 35,000  Level Seattle Center
02:36AM 40.7425 -122.9181 179° South 360 414 35,000  Level Seattle Center
02:37AM 40.6417 -122.9164 179° South 362 417 35,000  Level Seattle Center
02:38AM 40.5414 -122.9136 179° South 362 417 35,000  Level Seattle Center
02:39AM 40.4403 -122.9119 180° South 363 418 35,000  Level Seattle Center
02:40AM 40.3386 -122.9108 179° South 366 421 35,000  Level Seattle Center
02:42AM 40.2139 -122.9089 179° South 364 419 35,000  Level Oakland Center
02:43AM 40.1139 -122.9061 179° South 364 419 35,000  Level Oakland Center
02:44AM 40.0139 -122.9033 179° South 364 419 35,000  Level Oakland Center
02:45AM 39.9119 -122.9006 174° South 364 419 35,000  Level Oakland Center
02:46AM 39.8078 -122.8869 175° South 364 419 35,000  Level Oakland Center
02:47AM 39.7058 -122.8761 176° South 364 419 35,000  Level Oakland Center
02:48AM 39.6039 -122.8678 174° South 364 419 35,000  Level Oakland Center
02:49AM 39.5061 -122.8544 175° South 364 419 35,000  Level Oakland Center
02:50AM 39.4061 -122.8439 175° South 364 419 35,000  Level Oakland Center
02:51AM 39.3083 -122.8333 174° South 364 419 35,000  Level Oakland Center
02:52AM 39.2083 -122.8200 176° South 364 419 35,000  Level Oakland Center
02:54AM 39.0167 -122.8042 173° South 364 419 35,000  Level Oakland Center
02:55AM 38.9189 -122.7883 175° South 364 419 35,000 -200 Level Oakland Center
02:56AM 38.8169 -122.7778 175° South 358 412 34,600 -1,575 Descending Oakland Center
02:59AM 38.5067 -122.7408 175° South 374 430 28,700 -1,975 Descending Oakland Center
03:00AM 38.4047 -122.7306 176° South 379 436 26,700 -2,000 Descending Oakland Center
03:01AM 38.2986 -122.7200 174° South 379 436 24,700 -1,950 Descending Oakland Center
03:02AM 38.1964 -122.7072 176° South 379 436 22,800 -1,950 Descending Oakland Center
03:03AM 38.0903 -122.6967 175° South 384 442 20,800 -1,950 Descending Oakland Center
03:04AM 37.9903 -122.6864 175° South 379 436 18,900 -1,650 Descending Oakland Center
03:05AM 37.8819 -122.6733 134° Southeast 366 421 17,500 -1,900 Descending Oakland Center
03:06AM 37.8186 -122.5906 140° Southeast 324 373 15,100 -2,050 Descending Oakland Center
03:07AM 37.7506 -122.5181 140° Southeast 324 373 13,400 -1,500 Descending Oakland Center
03:08AM 37.6828 -122.4458 140° Southeast 324 373 12,100 -700 Descending Oakland Center
03:09AM 37.6169 -122.3761 145° Southeast 319 367 12,000 -750 Descending Oakland Center
03:10AM 37.5486 -122.3147 147° Southeast 314 361 10,600 -1,900 Descending Oakland Center
03:11AM 37.4806 -122.2586 150° Southeast 303 349 8,200 -2,056 Descending Oakland Center
03:12AM 37.4000 -122.2000 149° Southeast 244 281 5,700 -1,289 Descending Northern Cal TRACON
03:13AM 37.3333 -122.1500 90° East 208 239 5,000 -524 Descending Northern Cal TRACON
03:14AM 37.3333 -122.1000 50° Northeast 243 280 4,600 -700 Descending Northern Cal TRACON
03:15AM 37.3667 -122.0500 332° Northwest 216 249 3,600 -950 Descending Northern Cal TRACON
03:16AM 37.4167 -122.0833 322° Northwest 186 214 2,700 -744 Descending Northern Cal TRACON
03:17AM 37.4500 -122.1167 338° Northwest 164 189 2,100 -313 Descending Northern Cal TRACON
03:18AM 37.4833 -122.1333 110° East 195 224 2,100 -67 Level Northern Cal TRACON
03:20AM 37.4500 -122.0167 110° East 157 181 1,900 -95 Descending Northern Cal TRACON